Time;durP1;ratioP1;P1;durP2;ratioP2;P2;SDS_P1;SDS_P2;PMS_P1;PMS_P2;Temp;Humidity;BMP_temperature;BMP_pressure;BME280_temperature;BME280_humidity;BME280_pressure;Samples;Min_cycle;Max_cycle;Signal;HPM_P1;HPM_P2
2022/06/21 00:00:48;;;;;;;19.35;5.10;;;;;;;10.47;100.00;155157.03;4955137;28;20583;-77
2022/06/21 00:03:19;;;;;;;12.18;4.80;;;;;;;10.50;100.00;155163.44;4953613;28;20038;-76
2022/06/21 00:05:48;;;;;;;14.05;4.78;;;;;;;10.47;100.00;155155.72;4961920;28;20046;-78
2022/06/21 00:08:19;;;;;;;19.52;5.47;;;;;;;10.45;100.00;155151.91;4959210;28;20038;-78
2022/06/21 00:10:46;;;;;;;21.70;5.57;;;;;;;10.41;100.00;155140.34;4952695;28;20030;-78
2022/06/21 00:13:21;;;;;;;14.43;4.95;;;;;;;10.32;100.00;155119.81;4975367;28;20064;-77
2022/06/21 00:15:51;;;;;;;15.77;5.05;;;;;;;10.21;100.00;155090.22;4983746;28;20049;-78
2022/06/21 00:18:20;;;;;;;18.40;5.40;;;;;;;10.21;100.00;155091.56;4942487;28;20042;-76
2022/06/21 00:20:46;;;;;;;17.08;5.32;;;;;;;10.45;100.00;155151.91;4943705;28;20050;-77
2022/06/21 00:23:16;;;;;;;18.20;5.63;;;;;;;10.32;100.00;155118.50;4949916;28;20117;-78
2022/06/21 00:25:42;;;;;;;19.67;5.68;;;;;;;10.30;100.00;155113.34;4969883;28;20034;-77
2022/06/21 00:28:08;;;;;;;13.85;5.45;;;;;;;10.25;100.00;155101.81;4963925;28;20583;-78
2022/06/21 00:30:33;;;;;;;22.60;6.00;;;;;;;10.26;100.00;155104.34;4959914;28;20034;-76
2022/06/21 00:32:59;;;;;;;17.25;5.10;;;;;;;10.16;100.00;155078.72;4967624;28;20041;-78
2022/06/21 00:35:25;;;;;;;25.55;5.95;;;;;;;10.17;100.00;155081.31;4935677;28;20100;-78
2022/06/21 00:37:53;;;;;;;19.27;5.50;;;;;;;10.25;100.00;155101.81;4969836;28;20046;-76
2022/06/21 00:40:26;;;;;;;15.93;5.10;;;;;;;10.24;100.00;155097.94;4965775;28;20030;-76
2022/06/21 00:43:21;;;;;;;17.67;5.43;;;;;;;10.18;100.00;155082.56;4938889;28;20552;-78
2022/06/21 00:45:49;;;;;;;16.65;5.50;;;;;;;10.14;100.00;155074.84;4966499;28;20050;-77
2022/06/21 00:48:20;;;;;;;23.08;5.57;;;;;;;10.13;100.00;155072.31;4956439;28;20045;-77
2022/06/21 00:50:51;;;;;;;22.63;5.78;;;;;;;10.07;100.00;155056.91;4954959;28;20567;-76
2022/06/21 00:53:21;;;;;;;25.80;6.18;;;;;;;10.09;100.00;155062.03;4952990;28;20108;-75
2022/06/21 00:55:56;;;;;;;21.00;5.03;;;;;;;10.04;100.00;155049.22;4955467;28;20921;-77
2022/06/21 00:58:25;;;;;;;23.58;6.40;;;;;;;10.17;100.00;155081.31;4959131;28;20038;-78
2022/06/21 01:01:03;;;;;;;21.48;5.82;;;;;;;10.10;100.00;155064.59;4935683;28;20035;-77
2022/06/21 01:03:40;;;;;;;23.35;6.68;;;;;;;10.03;100.00;155046.63;4957152;28;20038;-77
2022/06/21 01:06:18;;;;;;;25.33;5.63;;;;;;;9.94;100.00;155023.56;4967147;28;20047;-78
2022/06/21 01:08:49;;;;;;;19.63;5.63;;;;;;;9.84;100.00;154997.94;4944388;28;20120;-77
2022/06/21 01:11:21;;;;;;;19.05;5.32;;;;;;;9.82;100.00;154994.06;4977270;28;20512;-79
2022/06/21 01:13:50;;;;;;;20.38;5.40;;;;;;;9.87;100.00;155005.59;4972263;28;20053;-77
2022/06/21 01:16:16;;;;;;;29.02;6.40;;;;;;;9.95;100.00;155026.13;4973260;28;20092;-77
2022/06/21 01:18:43;;;;;;;18.95;5.63;;;;;;;9.83;100.00;154995.34;4961997;28;20030;-76
2022/06/21 01:21:13;;;;;;;19.92;5.80;;;;;;;9.87;100.00;155006.91;4958712;28;20483;-77
2022/06/21 01:23:56;;;;;;;28.23;6.95;;;;;;;9.86;100.00;155004.31;4962310;28;20076;-76
2022/06/21 01:26:42;;;;;;;18.73;6.32;;;;;;;9.91;100.00;155017.16;4958805;28;20070;-76
2022/06/21 01:29:15;;;;;;;21.00;6.30;;;;;;;9.88;100.00;155009.44;4959109;28;20128;-77
2022/06/21 01:31:42;;;;;;;16.83;6.43;;;;;;;9.78;100.00;154982.56;4987804;28;20041;-76
2022/06/21 01:34:21;;;;;;;22.70;6.55;;;;;;;9.66;100.00;154954.34;4941414;28;20046;-77
2022/06/21 01:36:52;;;;;;;27.30;6.93;;;;;;;9.60;100.00;154938.91;4956360;28;20742;-78
2022/06/21 01:39:26;;;;;;;24.88;6.97;;;;;;;9.65;100.00;154950.47;4943873;28;20085;-75
2022/06/21 01:42:13;;;;;;;25.60;7.22;;;;;;;9.65;100.00;154950.47;4961733;28;20045;-78
2022/06/21 01:44:45;;;;;;;27.55;6.45;;;;;;;9.55;100.00;154927.41;4967175;28;20222;-77
2022/06/21 01:47:16;;;;;;;18.73;6.43;;;;;;;9.58;100.00;154932.53;4992807;28;20046;-77
2022/06/21 01:49:47;;;;;;;22.60;6.93;;;;;;;9.61;100.00;154940.25;4982906;28;20388;-77
2022/06/21 01:52:18;;;;;;;24.20;6.47;;;;;;;9.70;100.00;154963.28;4968745;28;20070;-79
2022/06/21 01:54:51;;;;;;;25.23;6.55;;;;;;;9.68;100.00;154959.47;4960398;28;20041;-78
2022/06/21 01:57:16;;;;;;;28.63;7.53;;;;;;;9.65;100.00;154950.47;4975336;28;20073;-79
2022/06/21 01:59:49;;;;;;;22.48;6.78;;;;;;;9.58;100.00;154932.53;4944024;28;20069;-77
2022/06/21 02:02:22;;;;;;;21.88;7.28;;;;;;;9.62;100.00;154942.78;4982246;28;20038;-79
2022/06/21 02:05:12;;;;;;;26.38;7.05;;;;;;;9.72;100.00;154968.44;4952174;28;20058;-78
2022/06/21 02:07:49;;;;;;;24.35;6.75;;;;;;;9.74;100.00;154973.56;4964131;28;20054;-77
2022/06/21 02:10:32;;;;;;;26.33;7.57;;;;;;;9.82;100.00;154994.06;4934223;28;20039;-77
2022/06/21 02:13:16;;;;;;;28.77;7.10;;;;;;;9.87;100.00;155005.59;4971498;28;20045;-77
2022/06/21 02:15:48;;;;;;;32.53;6.82;;;;;;;9.79;100.00;154986.34;4982411;28;20057;-77
2022/06/21 02:18:16;;;;;;;25.58;6.82;;;;;;;9.75;100.00;154977.38;4998170;28;20038;-77
2022/06/21 02:20:49;;;;;;;25.75;7.32;;;;;;;9.68;100.00;154958.16;4970170;28;20038;-79
2022/06/21 02:23:17;;;;;;;27.55;6.70;;;;;;;9.64;100.00;154947.91;4955114;28;20046;-78
2022/06/21 02:25:44;;;;;;;23.38;6.97;;;;;;;9.52;100.00;154919.69;4959068;28;20053;-79
2022/06/21 02:28:14;;;;;;;31.60;7.57;;;;;;;9.47;100.00;154905.59;4950053;28;20034;-78
2022/06/21 02:30:41;;;;;;;22.55;6.68;;;;;;;9.55;100.00;154926.13;4943488;28;20084;-77
2022/06/21 02:33:13;;;;;;;19.05;6.03;;;;;;;9.49;100.00;154910.72;4940086;28;20038;-79
2022/06/21 02:35:42;;;;;;;28.52;7.38;;;;;;;9.49;100.00;154912.03;4959104;28;20118;-78
2022/06/21 02:38:18;;;;;;;19.55;6.40;;;;;;;9.43;100.00;154895.34;4955857;28;20039;-78
2022/06/21 02:40:48;;;;;;;23.38;6.65;;;;;;;9.33;100.00;154872.25;4945887;28;20058;-77
2022/06/21 02:43:29;;;;;;;21.80;6.35;;;;;;;9.33;100.00;154872.25;4976670;28;20047;-77
2022/06/21 02:46:08;;;;;;;24.92;5.97;;;;;;;9.29;100.00;154860.75;4935953;28;20493;-77
2022/06/21 02:48:46;;;;;;;19.13;5.93;;;;;;;9.23;100.00;154846.66;4956583;28;20054;-78
2022/06/21 02:51:19;;;;;;;21.13;5.85;;;;;;;9.16;100.00;154828.69;4968520;28;20061;-77
2022/06/21 02:53:59;;;;;;;23.08;5.85;;;;;;;9.11;100.00;154817.13;4952408;28;20043;-78
2022/06/21 02:56:39;;;;;;;19.40;6.20;;;;;;;9.00;100.00;154788.94;4973371;28;20038;-78
2022/06/21 02:59:06;;;;;;;19.17;6.20;;;;;;;8.94;100.00;154774.84;4962983;28;20113;-77
2022/06/21 03:01:39;;;;;;;19.52;5.50;;;;;;;8.91;100.00;154767.19;4968535;28;20039;-77
2022/06/21 03:04:06;;;;;;;19.15;5.90;;;;;;;8.94;100.00;154774.84;4962678;28;20039;-77
2022/06/21 03:06:33;;;;;;;18.83;5.13;;;;;;;8.93;100.00;154771.03;4956721;28;20043;-77
2022/06/21 03:09:10;;;;;;;23.88;6.20;;;;;;;8.94;100.00;154773.56;4975262;28;20758;-76
2022/06/21 03:11:47;;;;;;;21.83;6.22;;;;;;;9.07;100.00;154805.63;4979487;28;20109;-77
2022/06/21 03:14:22;;;;;;;19.63;5.85;;;;;;;9.00;100.00;154787.66;4962343;28;20387;-76
2022/06/21 03:16:49;;;;;;;18.83;5.65;;;;;;;9.00;100.00;154787.66;4965398;28;20121;-79
2022/06/21 03:19:28;;;;;;;17.83;5.55;;;;;;;9.02;100.00;154794.06;4978281;28;20400;-77
2022/06/21 03:21:55;;;;;;;19.88;5.57;;;;;;;8.98;100.00;154783.81;4974031;28;20376;-77
2022/06/21 03:24:24;;;;;;;24.40;6.00;;;;;;;9.18;100.00;154833.81;4943847;28;20037;-77
2022/06/21 03:27:00;;;;;;;29.92;6.60;;;;;;;9.15;100.00;154826.09;4981983;28;20038;-77
2022/06/21 03:29:28;;;;;;;18.20;6.43;;;;;;;9.10;100.00;154814.59;4949729;28;20720;-77
2022/06/21 03:31:54;;;;;;;23.30;6.35;;;;;;;8.98;100.00;154782.53;4936029;28;20042;-76
2022/06/21 03:34:22;;;;;;;16.88;6.07;;;;;;;9.08;100.00;154808.16;4953056;28;20042;-78
2022/06/21 03:36:50;;;;;;;28.10;7.20;;;;;;;9.21;100.00;154840.22;4944546;28;20039;-78
2022/06/21 03:39:19;;;;;;;20.70;6.07;;;;;;;9.34;100.00;154874.84;4967129;28;20108;-77
2022/06/21 03:41:48;;;;;;;21.13;5.78;;;;;;;9.32;100.00;154868.41;4961083;28;20408;-79
2022/06/21 03:44:23;;;;;;;12.68;4.75;;;;;;;9.26;100.00;154854.31;4957743;28;20034;-78
2022/06/21 03:46:52;;;;;;;24.27;5.78;;;;;;;9.35;100.00;154876.13;4986275;28;20555;-78
2022/06/21 03:49:31;;;;;;;38.47;7.07;;;;;;;9.42;100.00;154892.75;4954527;28;20081;-79
2022/06/21 03:51:59;;;;;;;27.33;6.35;;;;;;;9.47;100.00;154906.84;4953190;28;20044;-77
2022/06/21 03:54:39;;;;;;;21.73;5.80;;;;;;;9.48;100.00;154908.19;4973414;28;20078;-78
2022/06/21 03:57:23;;;;;;;15.50;5.68;;;;;;;9.54;100.00;154923.56;4975314;28;20053;-77
2022/06/21 04:00:01;;;;;;;20.38;5.68;;;;;;;9.62;100.00;154942.78;4962933;28;20068;-78
2022/06/21 04:02:36;;;;;;;16.92;5.32;;;;;;;9.60;100.00;154937.66;4971894;28;20034;-77
2022/06/21 04:05:22;;;;;;;24.30;5.82;;;;;;;9.67;100.00;154955.59;4953459;28;20042;-77
2022/06/21 04:07:54;;;;;;;21.40;5.60;;;;;;;9.64;100.00;154947.91;4974278;28;20054;-79
2022/06/21 04:10:29;;;;;;;22.50;5.35;;;;;;;9.68;100.00;154959.47;4971009;28;20061;-78
2022/06/21 04:13:01;;;;;;;24.55;5.30;;;;;;;9.80;100.00;154987.69;4970377;28;20407;-77
2022/06/21 04:15:43;;;;;;;24.05;5.57;;;;;;;9.90;100.00;155014.56;4941065;28;20082;-76
2022/06/21 04:18:36;;;;;;;17.42;5.05;;;;;;;9.91;100.00;155017.16;4961946;28;20598;-77
2022/06/21 04:21:07;;;;;;;32.92;6.50;;;;;;;9.92;100.00;155018.44;4973692;28;20046;-77
2022/06/21 04:23:43;;;;;;;20.50;4.85;;;;;;;10.10;100.00;155063.34;4957565;28;20130;-77
2022/06/21 04:26:16;;;;;;;23.02;4.93;;;;;;;10.27;100.00;155105.66;4959347;28;20441;-77
2022/06/21 04:28:56;;;;;;;21.75;5.13;;;;;;;10.29;100.00;155110.78;4956913;28;20074;-80
2022/06/21 04:31:36;;;;;;;20.85;4.97;;;;;;;10.49;100.00;155160.84;4981254;28;20035;-77
2022/06/21 04:34:14;;;;;;;29.58;4.50;;;;;;;10.65;100.00;155200.63;4964780;28;20863;-79
2022/06/21 04:37:29;;;;;;;19.17;4.53;;;;;;;10.66;100.00;155203.19;4977893;28;20031;-77
2022/06/21 04:40:22;;;;;;;25.38;4.38;;;;;;;10.69;100.00;155210.88;4947140;28;20838;-76
2022/06/21 04:42:55;;;;;;;18.90;4.60;;;;;;;10.83;100.00;155245.50;4960292;28;20052;-77
2022/06/21 04:45:44;;;;;;;19.77;4.50;;;;;;;10.86;100.00;155254.50;4945543;28;20636;-76
2022/06/21 04:48:22;;;;;;;23.10;5.15;;;;;;;10.96;100.00;155277.59;4949457;28;20049;-77
2022/06/21 04:50:55;;;;;;;20.77;4.97;;;;;;;11.07;100.00;155305.84;4966290;28;20543;-76
2022/06/21 04:53:59;;;;;;;19.45;4.53;;;;;;;11.08;100.00;155309.69;4972166;28;20061;-77
2022/06/21 04:56:33;;;;;;;;;;;;;;;11.05;100.00;155300.72;4982338;28;20035;-77
2022/06/21 04:59:01;;;;;;;22.20;4.47;;;;;;;11.15;100.00;155325.09;4953363;28;19945;-78
2022/06/21 05:01:30;;;;;;;23.27;5.15;;;;;;;11.23;100.00;155346.91;4959826;28;20038;-77
2022/06/21 05:04:06;;;;;;;22.08;4.57;;;;;;;11.46;100.00;155403.41;4957277;28;20043;-77
2022/06/21 05:06:32;;;;;;;18.52;4.55;;;;;;;11.55;100.00;155425.25;4958031;28;20468;-76
2022/06/21 05:08:59;;;;;;;20.10;5.10;;;;;;;11.57;100.00;155430.38;4963487;28;20095;-78
2022/06/21 05:11:25;;;;;;;27.92;4.63;;;;;;;11.67;100.00;155456.03;4964951;28;20039;-76
2022/06/21 05:13:55;;;;;;;23.50;4.68;;;;;;;11.69;100.00;155461.16;4961471;28;20038;-77
2022/06/21 05:16:26;;;;;;;28.35;4.55;;;;;;;11.71;100.00;155466.28;4965515;28;20042;-76
2022/06/21 05:19:08;;;;;;;21.60;4.25;;;;;;;11.91;100.00;155516.44;4940380;28;20042;-78
2022/06/21 05:22:05;;;;;;;19.02;4.43;;;;;;;12.05;100.00;155551.06;4963231;28;20045;-77
2022/06/21 05:24:31;;;;;;;17.23;3.45;;;;;;;12.17;100.00;155581.91;4982775;28;20034;-77
2022/06/21 05:27:12;;;;;;;20.10;4.35;;;;;;;12.30;100.00;155612.72;4961029;28;20038;-78
2022/06/21 05:29:47;;;;;;;22.23;3.72;;;;;;;12.25;100.00;155602.44;4960869;28;20042;-77
2022/06/21 05:32:18;;;;;;;18.27;3.97;;;;;;;12.37;100.00;155630.72;4945340;28;20074;-76
2022/06/21 05:34:48;;;;;;;17.67;4.05;;;;;;;12.36;100.00;155628.16;4978733;28;20027;-77
2022/06/21 05:37:31;;;;;;;21.92;3.92;;;;;;;12.55;100.00;155676.97;4960226;28;20104;-77
2022/06/21 05:40:02;;;;;;;15.98;3.35;;;;;;;12.75;100.00;155727.06;4957592;28;20086;-77
2022/06/21 05:42:28;;;;;;;20.95;4.00;;;;;;;12.85;100.00;155752.75;4974418;28;20034;-77
2022/06/21 05:45:01;;;;;;;17.92;3.63;;;;;;;12.97;100.00;155781.00;4947894;28;20069;-77
2022/06/21 05:47:31;;;;;;;18.63;3.15;;;;;;;13.12;100.00;155819.56;4955251;28;20034;-76
2022/06/21 05:49:58;;;;;;;21.13;3.15;;;;;;;13.15;100.00;155826.00;4960829;28;20042;-77
2022/06/21 05:52:34;;;;;;;21.80;2.88;;;;;;;13.13;100.00;155820.81;4963643;28;20034;-77
2022/06/21 05:55:09;;;;;;;19.88;3.17;;;;;;;13.29;100.00;155861.97;4956024;28;20041;-77
2022/06/21 05:57:48;;;;;;;15.07;2.45;;;;;;;13.42;100.00;155895.41;4974734;28;20444;-77
2022/06/21 06:00:25;;;;;;;21.02;2.85;;;;;;;13.69;100.00;155960.97;4947319;28;20038;-76
2022/06/21 06:02:56;;;;;;;17.17;2.92;;;;;;;13.70;100.00;155964.84;4974865;28;20097;-76
2022/06/21 06:05:32;;;;;;;13.82;2.92;;;;;;;13.77;100.00;155982.84;4969494;28;20034;-78
2022/06/21 06:08:12;;;;;;;14.88;2.40;;;;;;;13.94;100.00;156025.28;4959115;28;20049;-78
2022/06/21 06:10:40;;;;;;;18.15;2.60;;;;;;;13.98;100.00;156034.28;4969865;28;20052;-75
2022/06/21 06:13:12;;;;;;;15.40;3.28;;;;;;;14.01;100.00;156043.28;4954742;28;20113;-76
2022/06/21 06:15:52;;;;;;;14.63;2.90;;;;;;;14.30;100.00;156115.28;4976213;28;20126;-75
2022/06/21 06:18:19;;;;;;;21.70;2.53;;;;;;;14.38;100.00;156135.84;4952407;28;20054;-76
2022/06/21 06:21:01;;;;;;;15.70;2.35;;;;;;;14.52;100.00;156169.25;4948117;28;20561;-78
2022/06/21 06:23:26;;;;;;;15.75;2.65;;;;;;;14.64;100.00;156200.19;4973508;28;20404;-78
2022/06/21 06:25:58;;;;;;;13.30;2.78;;;;;;;14.67;100.00;156206.63;4938140;28;20158;-76
2022/06/21 06:28:39;;;;;;;11.73;2.10;;;;;;;14.87;100.00;156256.78;4967216;28;20038;-77
2022/06/21 06:31:38;;;;;;;11.57;2.45;;;;;;;14.81;100.00;156242.66;4957544;28;20045;-78
2022/06/21 06:34:09;;;;;;;10.35;2.40;;;;;;;14.87;100.00;156256.78;4890798;28;20065;-76
2022/06/21 06:36:38;;;;;;;19.00;2.55;;;;;;;14.79;100.00;156238.78;4979798;28;20073;-78
2022/06/21 06:39:17;;;;;;;25.05;2.95;;;;;;;14.81;100.00;156242.66;4972182;28;20037;-77
2022/06/21 06:42:03;;;;;;;13.48;2.38;;;;;;;14.89;100.00;156261.94;4982006;28;20492;-78
2022/06/21 06:44:34;;;;;;;9.50;2.20;;;;;;;14.98;100.00;156285.09;4961509;28;20058;-76
2022/06/21 06:47:02;;;;;;;14.70;2.60;;;;;;;15.06;100.00;156304.38;4979333;28;20124;-77
2022/06/21 06:49:33;;;;;;;11.20;2.22;;;;;;;15.31;100.00;156368.75;4992981;28;20034;-78
2022/06/21 06:52:10;;;;;;;19.00;2.30;;;;;;;15.33;100.00;156373.88;4959282;28;20129;-77
2022/06/21 06:54:52;;;;;;;10.70;2.28;;;;;;;15.38;100.00;156386.72;4956331;28;20038;-77
2022/06/21 06:57:29;;;;;;;12.57;2.45;;;;;;;15.47;100.00;156407.34;4968206;28;20039;-76
2022/06/21 06:59:56;;;;;;;21.83;3.25;;;;;;;15.37;100.00;156384.16;4958428;28;20042;-76
2022/06/21 07:02:42;;;;;;;9.55;1.73;;;;;;;15.68;100.00;156460.09;4936199;28;20129;-77
2022/06/21 07:05:32;;;;;;;15.32;2.47;;;;;;;15.83;100.00;156497.47;4939004;28;20051;-74
2022/06/21 07:08:08;;;;;;;12.27;2.15;;;;;;;15.93;100.00;156523.19;4964784;28;20030;-77
2022/06/21 07:10:35;;;;;;;14.35;3.00;;;;;;;16.11;100.00;156568.25;4948460;28;20073;-76
2022/06/21 07:13:01;;;;;;;13.77;2.20;;;;;;;16.09;99.03;156563.09;4950422;28;20061;-76
2022/06/21 07:15:33;;;;;;;9.52;2.10;;;;;;;16.07;100.00;156559.25;4973898;28;20058;-77
2022/06/21 07:17:59;;;;;;;13.35;2.38;;;;;;;16.16;100.00;156581.09;4956211;28;20103;-78
2022/06/21 07:20:34;;;;;;;11.35;2.08;;;;;;;16.36;100.00;156631.31;4943487;28;20042;-72
2022/06/21 07:22:59;;;;;;;8.75;1.77;;;;;;;16.56;100.00;156681.56;4940571;28;20074;-74
2022/06/21 07:25:36;;;;;;;9.93;2.22;;;;;;;16.62;100.00;156697.00;4959864;28;20035;-75
2022/06/21 07:28:09;;;;;;;12.18;2.55;;;;;;;16.79;98.71;156739.47;4955016;28;20040;-76
2022/06/21 07:30:39;;;;;;;9.57;1.95;;;;;;;16.94;96.31;156776.88;4979329;28;20034;-76
2022/06/21 07:33:12;;;;;;;8.20;1.80;;;;;;;17.10;97.80;156816.78;4943440;28;20099;-75
2022/06/21 07:35:47;;;;;;;12.75;1.55;;;;;;;17.10;96.15;156816.78;4967963;28;20034;-74
2022/06/21 07:38:16;;;;;;;18.80;2.20;;;;;;;17.01;94.62;156794.91;4946897;28;20048;-77
2022/06/21 07:40:49;;;;;;;13.25;2.00;;;;;;;16.83;94.10;156749.81;4982041;28;20496;-75
2022/06/21 07:43:22;;;;;;;7.78;1.85;;;;;;;17.06;94.80;156806.50;4967805;28;20042;-75
2022/06/21 07:46:11;;;;;;;12.50;1.92;;;;;;;17.19;95.74;156838.69;4977401;28;20078;-77
2022/06/21 07:48:55;;;;;;;13.07;2.17;;;;;;;17.48;94.67;156913.44;4980885;28;20046;-79
2022/06/21 07:51:36;;;;;;;11.30;2.13;;;;;;;17.56;94.23;156931.47;4956343;28;20104;-77
2022/06/21 07:54:13;;;;;;;11.18;1.80;;;;;;;17.65;91.04;156954.63;4949854;28;20145;-78
2022/06/21 07:56:55;;;;;;;11.18;1.70;;;;;;;17.74;91.75;156977.81;4957243;28;20589;-78
2022/06/21 07:59:25;;;;;;;13.00;2.17;;;;;;;17.96;95.77;157032.00;4958581;28;20045;-77
2022/06/21 08:07:51;;;;;;;10.35;1.75;;;;;;;18.13;86.87;157074.53;4949206;28;20107;-78
2022/06/21 08:10:27;;;;;;;10.25;2.33;;;;;;;18.07;87.35;157061.63;4942736;28;20046;-79
2022/06/21 08:12:54;;;;;;;10.93;1.80;;;;;;;18.17;87.76;157086.13;4976576;28;20491;-75
2022/06/21 08:15:25;;;;;;;12.30;1.67;;;;;;;18.35;85.53;157129.97;4987200;28;20037;-74
2022/06/21 08:18:06;;;;;;;9.30;1.88;;;;;;;18.42;87.00;157149.31;4954204;28;20519;-75
2022/06/21 08:20:41;;;;;;;11.30;2.13;;;;;;;18.47;89.92;157162.16;4949516;28;20059;-76
2022/06/21 08:23:12;;;;;;;10.35;1.92;;;;;;;18.77;89.33;157236.94;4947856;28;20057;-76
2022/06/21 08:25:45;;;;;;;13.60;2.53;;;;;;;18.82;83.94;157249.88;4965377;28;20045;-75
2022/06/21 08:28:18;;;;;;;12.45;2.75;;;;;;;18.88;87.51;157264.06;4967293;28;20042;-75
2022/06/21 08:31:21;;;;;;;12.43;2.65;;;;;;;19.03;89.49;157301.47;4973053;28;20039;-77
2022/06/21 08:34:03;;;;;;;12.75;2.15;;;;;;;19.10;84.22;157319.53;4950464;23;20031;-76
2022/06/21 08:36:39;;;;;;;9.20;2.15;;;;;;;18.77;82.79;157236.94;4942689;28;20097;-85
2022/06/21 08:39:11;;;;;;;9.80;1.95;;;;;;;18.92;78.77;157274.38;4950028;28;20074;-79
2022/06/21 08:41:54;;;;;;;12.73;2.90;;;;;;;18.97;81.60;157287.28;4966989;28;20047;-80
2022/06/21 08:48:20;;;;;;;10.27;2.50;;;;;;;19.31;82.22;157372.38;4984362;28;20043;-80
2022/06/21 08:51:14;;;;;;;9.05;2.30;;;;;;;19.64;83.05;157454.91;4973491;28;20539;-79
2022/06/21 08:53:55;;;;;;;11.32;2.28;;;;;;;19.88;82.96;157515.59;4962596;28;20524;-78
2022/06/21 08:56:27;;;;;;;11.18;2.50;;;;;;;19.98;78.58;157541.38;4962097;28;20046;-82
2022/06/21 08:59:18;;;;;;;9.32;2.40;;;;;;;20.16;78.81;157586.56;4985100;28;20380;-80
2022/06/21 09:02:33;;;;;;;14.48;2.20;;;;;;;20.21;79.14;157598.13;4956079;29;20407;-79
2022/06/21 09:05:14;;;;;;;8.68;2.10;;;;;;;20.19;76.53;157592.97;4945292;28;20123;-80
2022/06/21 09:07:57;;;;;;;7.00;2.15;;;;;;;20.17;76.87;157587.81;4968382;28;20121;-81
2022/06/21 09:10:42;;;;;;;10.07;2.35;;;;;;;20.24;78.96;157605.91;4977288;28;20497;-82
2022/06/21 09:13:16;;;;;;;9.13;1.85;;;;;;;20.46;74.28;157660.13;4950096;28;20047;-81
2022/06/21 09:15:45;;;;;;;9.05;1.80;;;;;;;20.59;74.52;157694.94;4947004;28;20063;-80
2022/06/21 09:18:29;;;;;;;7.90;1.75;;;;;;;20.72;73.45;157725.94;4969225;28;20058;-80
2022/06/21 09:21:08;;;;;;;10.20;1.65;;;;;;;20.52;73.37;157676.88;4951064;28;20062;-82
2022/06/21 09:23:54;;;;;;;7.65;1.85;;;;;;;20.53;70.90;157678.16;4962852;28;20066;-77
2022/06/21 09:26:44;;;;;;;5.03;1.60;;;;;;;20.70;74.06;157720.78;4966619;28;20046;-81
2022/06/21 09:29:50;;;;;;;8.75;1.60;;;;;;;20.96;74.14;157786.59;4968798;28;20061;-81
2022/06/21 09:32:36;;;;;;;13.05;1.95;;;;;;;20.84;75.90;157756.94;4942210;28;20046;-80
2022/06/21 09:35:13;;;;;;;5.25;1.35;;;;;;;21.09;70.93;157820.16;4948558;28;20044;-78
2022/06/21 09:38:15;;;;;;;5.25;1.23;;;;;;;21.29;72.83;157869.25;4964425;28;20050;-83
2022/06/21 09:41:04;;;;;;;8.30;1.40;;;;;;;21.34;66.85;157883.44;4963823;28;20355;-78
2022/06/21 09:43:38;;;;;;;9.38;1.70;;;;;;;21.48;68.68;157917.06;4947846;28;20054;-83
2022/06/21 09:46:21;;;;;;;11.40;1.65;;;;;;;21.68;68.83;157968.72;4987876;28;20042;-82
2022/06/21 09:49:04;;;;;;;12.00;1.70;;;;;;;21.84;67.11;158007.44;4931593;28;20125;-82
2022/06/21 09:51:58;;;;;;;8.13;1.65;;;;;;;21.75;72.77;157986.75;4972712;28;20041;-80
2022/06/21 09:54:38;;;;;;;5.75;1.20;;;;;;;21.96;68.49;158038.41;4923093;28;20131;-82
2022/06/21 09:57:33;;;;;;;5.03;1.10;;;;;;;22.30;62.79;158123.69;4964994;28;20035;-81
2022/06/21 10:00:08;;;;;;;6.70;1.50;;;;;;;22.54;63.24;158185.69;4963614;28;20062;-81
2022/06/21 10:03:13;;;;;;;6.22;1.23;;;;;;;22.24;64.34;158108.16;4980693;28;20034;-78
2022/06/21 10:06:01;;;;;;;6.65;1.63;;;;;;;21.87;64.47;158016.50;4962281;28;20043;-80
2022/06/21 10:08:42;;;;;;;6.90;1.35;;;;;;;22.03;62.25;158055.22;4959301;28;20039;-82
2022/06/21 10:11:33;;;;;;;6.05;1.20;;;;;;;22.14;61.74;158084.91;4960743;28;20054;-78
2022/06/21 10:14:05;;;;;;;7.53;1.45;;;;;;;21.43;66.09;157904.09;4986132;28;20046;-79
2022/06/21 10:17:00;;;;;;;6.60;1.55;;;;;;;21.94;63.73;158034.56;4971975;28;20047;-79
2022/06/21 10:19:49;;;;;;;6.53;1.42;;;;;;;22.49;62.66;158172.81;4967663;28;20035;-80
2022/06/21 10:22:31;;;;;;;8.18;1.27;;;;;;;22.91;60.34;158277.44;4947967;28;20098;-80
2022/06/21 10:25:18;;;;;;;3.67;0.95;;;;;;;23.11;57.05;158327.88;4961745;28;20043;-81
2022/06/21 10:27:59;;;;;;;6.13;1.20;;;;;;;23.21;53.76;158353.75;4960590;28;20072;-78
2022/06/21 10:30:41;;;;;;;9.35;1.30;;;;;;;23.23;56.42;158358.91;4965798;28;20437;-79
2022/06/21 10:33:07;;;;;;;9.18;1.30;;;;;;;23.24;54.98;158360.19;4967244;28;20681;-77
2022/06/21 10:35:44;;;;;;;8.32;1.48;;;;;;;23.51;61.70;158429.97;4972318;28;20560;-78
2022/06/21 10:38:21;;;;;;;7.63;1.55;;;;;;;23.54;53.42;158436.41;4965544;28;20086;-81
2022/06/21 10:41:15;;;;;;;3.90;1.00;;;;;;;23.15;54.22;158338.25;4923296;28;20038;-78
2022/06/21 10:44:41;;;;;;;9.65;1.83;;;;;;;22.83;55.24;158256.75;4981464;28;20034;-80
2022/06/21 10:47:26;;;;;;;7.63;1.80;;;;;;;22.77;61.77;158241.25;4904688;29;20412;-78
2022/06/21 10:50:12;;;;;;;9.38;1.65;;;;;;;22.38;57.98;158144.41;4897605;29;20123;-78
2022/06/21 10:53:01;;;;;;;7.65;1.27;;;;;;;21.44;62.65;157906.69;4971518;28;20561;-78
2022/06/21 10:55:44;;;;;;;8.80;1.58;;;;;;;22.09;58.63;158071.97;4956426;28;20066;-79
2022/06/21 10:58:36;;;;;;;5.85;1.63;;;;;;;22.40;57.44;158149.56;4966699;28;20050;-78
2022/06/21 11:01:17;;;;;;;9.15;1.17;;;;;;;22.95;56.85;158287.78;4943386;28;20035;-74
2022/06/21 11:03:54;;;;;;;6.75;1.23;;;;;;;22.98;56.29;158294.22;4962964;28;20046;-77
2022/06/21 11:06:48;;;;;;;7.07;1.30;;;;;;;23.23;57.78;158358.91;4978070;28;20062;-76
2022/06/21 11:09:20;;;;;;;5.90;1.42;;;;;;;22.98;56.82;158294.22;4965167;28;20053;-77
2022/06/21 11:12:52;;;;;;;6.40;1.38;;;;;;;23.33;62.19;158383.44;4975607;28;20045;-78
2022/06/21 11:15:10;;;;;;;9.38;1.50;;;;;;;23.21;54.98;158352.47;4967415;28;20038;-80
2022/06/21 11:17:41;;;;;;;3.95;1.23;;;;;;;23.28;55.80;158371.84;4967901;28;20053;-79
2022/06/21 11:20:22;;;;;;;5.85;1.17;;;;;;;23.39;53.15;158397.66;4934979;28;20413;-80
2022/06/21 11:23:01;;;;;;;7.57;1.38;;;;;;;23.44;53.26;158411.88;4967998;28;20050;-79
2022/06/21 11:25:48;;;;;;;6.65;1.20;;;;;;;23.30;49.53;158375.66;4978526;28;20043;-82
2022/06/21 11:28:32;;;;;;;7.07;1.20;;;;;;;23.38;52.29;158396.38;4963357;28;20030;-82
2022/06/21 11:31:18;;;;;;;6.07;1.00;;;;;;;23.84;51.36;158511.44;4958907;28;20053;-85
2022/06/21 11:34:02;;;;;;;7.03;1.08;;;;;;;23.52;51.93;158431.25;4952195;28;20038;-81
2022/06/21 11:37:01;;;;;;;9.65;1.50;;;;;;;23.68;55.43;158472.63;4953083;28;20382;-80
2022/06/21 11:39:55;;;;;;;6.65;1.50;;;;;;;23.39;52.44;158398.94;4979063;28;20093;-81
2022/06/21 11:42:33;;;;;;;10.13;1.20;;;;;;;23.90;55.38;158526.94;4963497;28;20130;-79
2022/06/21 11:45:02;;;;;;;6.40;1.45;;;;;;;24.22;53.64;158607.09;4953255;28;20034;-78
2022/06/21 11:48:00;;;;;;;4.85;1.20;;;;;;;24.20;52.06;158603.22;4955620;28;20572;-78
2022/06/21 11:50:42;;;;;;;4.25;1.30;;;;;;;23.78;52.96;158495.91;4968619;28;20516;-80
2022/06/21 11:53:19;;;;;;;6.07;1.35;;;;;;;23.61;54.71;158453.25;4953031;28;20050;-79
2022/06/21 11:56:09;;;;;;;9.23;1.40;;;;;;;24.02;48.98;158558.00;4969485;28;20044;-79
2022/06/21 11:58:56;;;;;;;6.95;1.63;;;;;;;24.06;51.24;158567.06;4970105;28;20129;-76
2022/06/21 12:01:30;;;;;;;8.07;1.20;;;;;;;23.94;51.25;158537.31;4964271;28;20043;-78
2022/06/21 12:04:10;;;;;;;7.22;1.30;;;;;;;23.25;58.34;158362.78;4941983;28;20042;-81
2022/06/21 12:07:03;;;;;;;7.88;1.45;;;;;;;22.69;54.02;158221.88;4944396;28;20040;-79
2022/06/21 12:09:55;;;;;;;3.00;0.80;;;;;;;23.00;55.52;158300.72;4953647;28;20169;-78
2022/06/21 12:12:27;;;;;;;5.68;1.38;;;;;;;23.48;54.15;158420.94;4963572;28;20035;-81